Lagrange, Ohio
Current Conditions -  °F | °C
As of 2:53 AM on Friday 19 Dec 2014 (Local Time) from KLPR Reporting Station
Haze Haze  
Wind Chill: 20°   Ceiling: 800
Heat Index: 29°   Visibility: 6mi
Dew Point: 27°   Wind: 9mph
Humidity: 92%   Direction: 280°W
Pressure: 30.19"   Gusts: NA
Location:  41.24°N, 82.12°W
Report Text: KLPR 190753Z AUTO 28008KT 6SM BR OVC008 M02/M03 A3019 RMK AO2 SLP231 T10171028 TSNO
Loading
Personal Weather Stations






























Interactive Weather Map New forecast layout! Learn more

10-Day Weather Forecast

Advertisements
Track Severe Weather on mobile